Time;durP1;ratioP1;P1;durP2;ratioP2;P2;SDS_P1;SDS_P2;PMS_P1;PMS_P2;Temp;Humidity;BMP_temperature;BMP_pressure;BME280_temperature;BME280_humidity;BME280_pressure;Samples;Min_cycle;Max_cycle;Signal;HPM_P1;HPM_P2
2021/04/04 00:01:20;;;;;;;2.85;2.15;;;14.40;35.20;;;;;;6282748;28;20115;-78
2021/04/04 00:04:21;;;;;;;7.13;2.55;;;14.20;35.40;;;;;;6241774;28;20482;-79
2021/04/04 00:07:22;;;;;;;5.80;2.30;;;14.20;35.50;;;;;;6276913;28;20041;-79
2021/04/04 00:10:23;;;;;;;8.20;2.42;;;14.10;35.60;;;;;;6281793;28;20037;-77
2021/04/04 00:13:24;;;;;;;6.07;2.35;;;14.10;35.60;;;;;;6279289;28;20057;-78
2021/04/04 00:16:25;;;;;;;4.47;2.20;;;14.00;35.60;;;;;;6289362;28;20040;-77
2021/04/04 00:19:27;;;;;;;4.50;1.95;;;14.00;35.80;;;;;;6265529;28;20397;-77
2021/04/04 00:22:28;;;;;;;10.00;2.47;;;13.90;36.00;;;;;;6260634;28;20433;-78
2021/04/04 00:25:29;;;;;;;3.63;1.92;;;13.90;36.30;;;;;;6243179;28;20041;-77
2021/04/04 00:28:30;;;;;;;6.13;2.40;;;13.90;36.30;;;;;;6259950;28;20045;-78
2021/04/04 00:31:31;;;;;;;7.13;2.13;;;13.80;36.40;;;;;;6247476;28;20041;-77
2021/04/04 00:34:32;;;;;;;4.78;2.33;;;13.80;36.70;;;;;;6265687;28;20041;-77
2021/04/04 00:37:33;;;;;;;6.53;2.58;;;13.70;36.70;;;;;;6272938;28;20048;-78
2021/04/04 00:40:35;;;;;;;5.93;2.05;;;13.70;36.80;;;;;;6281437;28;20066;-78
2021/04/04 00:43:36;;;;;;;3.25;1.88;;;13.70;36.70;;;;;;6262479;28;20060;-77
2021/04/04 00:46:38;;;;;;;4.57;1.88;;;13.70;36.90;;;;;;6264744;28;20367;-77
2021/04/04 00:49:39;;;;;;;3.28;2.10;;;13.60;37.10;;;;;;6259798;28;20037;-77
2021/04/04 00:52:40;;;;;;;6.18;2.15;;;13.60;37.00;;;;;;6251068;28;20033;-77
2021/04/04 00:55:41;;;;;;;6.30;2.20;;;13.60;36.80;;;;;;6256497;28;20048;-77
2021/04/04 00:58:42;;;;;;;5.55;2.28;;;13.60;37.00;;;;;;6216523;28;20165;-78
2021/04/04 01:01:43;;;;;;;5.70;2.63;;;13.60;36.90;;;;;;6297725;28;20032;-77
2021/04/04 01:04:47;;;;;;;6.90;2.42;;;13.50;37.20;;;;;;6298183;28;20033;-78
2021/04/04 01:07:49;;;;;;;7.05;1.90;;;13.40;37.80;;;;;;6264199;28;20478;-78
2021/04/04 01:10:51;;;;;;;5.93;3.10;;;13.30;38.50;;;;;;6280534;28;20040;-77
2021/04/04 01:14:18;;;;;;;4.18;2.38;;;13.20;38.50;;;;;;6261648;28;20116;-77
2021/04/04 01:17:21;;;;;;;3.72;2.20;;;13.10;38.70;;;;;;6292217;28;20041;-77
2021/04/04 01:20:35;;;;;;;4.75;1.88;;;13.10;38.80;;;;;;6260047;28;20029;-77
2021/04/04 01:23:49;;;;;;;4.32;2.20;;;13.10;38.80;;;;;;6282816;28;20052;-78
2021/04/04 01:27:16;;;;;;;4.53;2.00;;;13.10;38.70;;;;;;6249671;28;20048;-77
2021/04/04 01:30:18;;;;;;;4.82;2.22;;;13.10;38.50;;;;;;6279067;28;20024;-78
2021/04/04 01:33:21;;;;;;;7.25;2.17;;;13.10;38.80;;;;;;6230802;28;20029;-78
2021/04/04 01:36:23;;;;;;;6.72;2.42;;;13.10;38.40;;;;;;6256813;28;20472;-77
2021/04/04 01:39:28;;;;;;;7.38;2.40;;;13.10;38.50;;;;;;6273300;28;20025;-78
2021/04/04 01:42:29;;;;;;;5.20;2.40;;;13.10;38.50;;;;;;6256579;28;20033;-78
2021/04/04 01:45:31;;;;;;;4.03;2.00;;;13.20;38.80;;;;;;6238941;28;20116;-77
2021/04/04 01:48:34;;;;;;;6.65;2.40;;;13.10;39.00;;;;;;6254490;28;20443;-77
2021/04/04 01:51:35;;;;;;;10.15;2.30;;;13.10;39.00;;;;;;6257973;28;20094;-77
2021/04/04 01:54:36;;;;;;;9.07;2.30;;;13.10;39.00;;;;;;6276100;28;20048;-78
2021/04/04 01:57:39;;;;;;;4.25;2.28;;;13.10;38.90;;;;;;6252818;28;20348;-77
2021/04/04 02:00:41;;;;;;;9.68;2.10;;;13.00;39.10;;;;;;6279025;28;20033;-77
2021/04/04 02:03:43;;;;;;;6.57;2.33;;;13.00;39.40;;;;;;6262833;28;20470;-76
2021/04/04 02:06:44;;;;;;;5.18;2.35;;;12.90;39.60;;;;;;6263541;28;20040;-78
2021/04/04 02:09:47;;;;;;;3.90;2.25;;;12.90;39.70;;;;;;6262844;28;20040;-78
2021/04/04 02:12:51;;;;;;;5.45;2.53;;;12.90;40.00;;;;;;6274561;28;20359;-78
2021/04/04 02:15:58;;;;;;;4.90;2.28;;;12.80;40.00;;;;;;6273765;28;20569;-77
2021/04/04 02:18:59;;;;;;;3.88;2.17;;;12.80;39.80;;;;;;6264613;28;20063;-78
2021/04/04 02:22:00;;;;;;;3.38;1.92;;;12.80;39.90;;;;;;6250549;28;20079;-78
2021/04/04 02:25:02;;;;;;;2.92;1.65;;;12.80;39.50;;;;;;6274183;28;20041;-78
2021/04/04 02:28:04;;;;;;;2.83;1.65;;;12.80;39.00;;;;;;6277918;28;20033;-77
2021/04/04 02:31:05;;;;;;;3.83;1.90;;;12.80;38.70;;;;;;6270341;28;20017;-77
2021/04/04 02:34:16;;;;;;;6.00;2.50;;;12.80;38.60;;;;;;6286077;28;20124;-78
2021/04/04 02:37:17;;;;;;;3.95;1.73;;;12.80;38.50;;;;;;6263511;28;20029;-77
2021/04/04 02:40:18;;;;;;;3.17;1.60;;;12.80;38.40;;;;;;6273655;28;20036;-77
2021/04/04 02:43:25;;;;;;;5.03;2.05;;;12.80;38.40;;;;;;6253632;28;20040;-77
2021/04/04 02:46:28;;;;;;;3.97;2.17;;;12.80;38.40;;;;;;6265842;28;20457;-77
2021/04/04 02:49:31;;;;;;;2.45;1.63;;;12.80;38.50;;;;;;6277604;28;20094;-77
2021/04/04 02:52:36;;;;;;;4.40;2.17;;;12.70;38.40;;;;;;6264325;28;20395;-77
2021/04/04 02:55:38;;;;;;;4.63;2.00;;;12.70;38.40;;;;;;6273693;28;20028;-78
2021/04/04 02:58:40;;;;;;;6.65;1.98;;;12.70;38.50;;;;;;6273232;28;20539;-77
2021/04/04 03:01:45;;;;;;;5.50;2.55;;;12.60;38.60;;;;;;6279906;28;20482;-77
2021/04/04 03:04:49;;;;;;;3.50;1.75;;;12.60;38.80;;;;;;6283850;28;20132;-77
2021/04/04 03:07:52;;;;;;;4.28;2.38;;;12.50;38.80;;;;;;6302183;28;20040;-77
2021/04/04 03:10:55;;;;;;;3.63;2.15;;;12.50;38.90;;;;;;6277777;28;20041;-77
2021/04/04 03:13:56;;;;;;;6.13;2.10;;;12.40;38.90;;;;;;6277282;28;20116;-77
2021/04/04 03:16:58;;;;;;;6.57;2.05;;;12.40;39.00;;;;;;6281662;28;20085;-77
2021/04/04 03:20:00;;;;;;;3.22;2.05;;;12.40;39.00;;;;;;6244163;28;20048;-77
2021/04/04 03:23:02;;;;;;;4.63;2.38;;;12.40;39.10;;;;;;6247876;28;20037;-78
2021/04/04 03:26:04;;;;;;;8.35;2.58;;;12.40;39.30;;;;;;6283650;28;20025;-77
2021/04/04 03:29:06;;;;;;;7.32;2.80;;;12.40;39.30;;;;;;6284402;28;20086;-77
2021/04/04 03:32:08;;;;;;;6.25;2.08;;;12.40;39.20;;;;;;6267111;28;20036;-78
2021/04/04 03:35:10;;;;;;;6.90;2.60;;;12.40;39.40;;;;;;6275265;28;20068;-79
2021/04/04 03:38:12;;;;;;;4.47;2.42;;;12.30;39.40;;;;;;6251188;28;20036;-77
2021/04/04 03:41:14;;;;;;;8.13;2.80;;;12.30;39.50;;;;;;6262441;28;20036;-77
2021/04/04 03:44:21;;;;;;;6.93;2.50;;;12.30;39.60;;;;;;6261648;28;20126;-78
2021/04/04 03:47:22;;;;;;;4.25;2.50;;;12.20;39.70;;;;;;6273523;28;20059;-78
2021/04/04 03:50:23;;;;;;;10.18;1.85;;;12.20;39.80;;;;;;6277697;28;20032;-77
2021/04/04 03:53:27;;;;;;;6.88;2.22;;;12.20;39.80;;;;;;6260019;28;20033;-78
2021/04/04 03:56:36;;;;;;;4.63;2.53;;;12.20;39.90;;;;;;6280690;28;20119;-77
2021/04/04 03:59:40;;;;;;;6.20;2.30;;;12.20;40.00;;;;;;6276475;28;20047;-77
2021/04/04 04:02:44;;;;;;;5.50;2.38;;;12.20;40.00;;;;;;6244831;28;20040;-78
2021/04/04 04:05:47;;;;;;;5.20;2.25;;;12.20;40.00;;;;;;6278341;28;21504;-77
2021/04/04 04:08:49;;;;;;;3.85;2.13;;;12.20;39.90;;;;;;6260754;28;20037;-77
2021/04/04 04:11:53;;;;;;;6.28;2.35;;;12.20;39.90;;;;;;6260524;28;20029;-76
2021/04/04 04:14:56;;;;;;;5.05;2.45;;;12.20;40.00;;;;;;6259331;28;20028;-78
2021/04/04 04:17:59;;;;;;;4.90;2.55;;;12.20;40.10;;;;;;6260390;28;20040;-77
2021/04/04 04:21:01;;;;;;;3.20;2.20;;;12.20;40.20;;;;;;6261032;28;20033;-78
2021/04/04 04:24:07;;;;;;;5.20;2.00;;;12.20;40.30;;;;;;6278127;28;20146;-77
2021/04/04 04:27:09;;;;;;;9.60;2.50;;;12.10;40.20;;;;;;6260916;28;20033;-78
2021/04/04 04:30:12;;;;;;;2.80;1.90;;;12.10;40.10;;;;;;6260640;28;20037;-77
2021/04/04 04:33:16;;;;;;;5.65;2.10;;;12.10;40.20;;;;;;6261099;28;20033;-79
2021/04/04 04:36:18;;;;;;;4.85;2.15;;;12.10;40.20;;;;;;6284807;28;20033;-77
2021/04/04 04:39:19;;;;;;;3.00;1.90;;;12.10;40.10;;;;;;6267409;28;20060;-78
2021/04/04 04:42:20;;;;;;;5.97;2.30;;;12.10;40.80;;;;;;6244073;28;20036;-78
2021/04/04 04:45:33;;;;;;;2.78;2.03;;;12.00;40.30;;;;;;6243470;28;20021;-78
2021/04/04 04:48:34;;;;;;;3.85;2.33;;;12.00;40.40;;;;;;6289724;28;20028;-77
2021/04/04 04:51:36;;;;;;;8.32;2.35;;;12.00;40.60;;;;;;6283799;28;20041;-76
2021/04/04 04:54:40;;;;;;;5.60;2.28;;;11.90;40.80;;;;;;6264628;28;20033;-77
2021/04/04 04:57:43;;;;;;;5.05;2.35;;;11.90;41.00;;;;;;6277327;28;20032;-78
2021/04/04 05:00:44;;;;;;;5.80;2.85;;;11.90;41.30;;;;;;6259813;28;20094;-79
2021/04/04 05:03:47;;;;;;;8.73;2.50;;;11.90;41.40;;;;;;6279372;28;20045;-77
2021/04/04 05:06:51;;;;;;;9.80;2.00;;;11.90;41.60;;;;;;6268068;28;20040;-77
2021/04/04 05:09:53;;;;;;;4.35;2.30;;;11.90;41.80;;;;;;6282677;28;20071;-77
2021/04/04 05:13:03;;;;;;;5.00;2.25;;;11.90;41.70;;;;;;6261509;28;20115;-78
2021/04/04 05:16:15;;;;;;;5.18;2.65;;;11.90;41.70;;;;;;6237742;28;20479;-78
2021/04/04 05:19:16;;;;;;;4.78;2.17;;;11.90;41.70;;;;;;6271009;28;20033;-78
2021/04/04 05:22:18;;;;;;;4.50;2.42;;;11.90;41.60;;;;;;6272791;28;20021;-77
2021/04/04 05:25:19;;;;;;;4.50;2.10;;;11.90;41.60;;;;;;6273228;28;20052;-76
2021/04/04 05:28:20;;;;;;;4.57;2.33;;;11.90;41.50;;;;;;6279698;28;20458;-77
2021/04/04 05:31:22;;;;;;;4.30;2.47;;;12.00;41.70;;;;;;6279577;28;20029;-77
2021/04/04 05:34:26;;;;;;;3.85;2.20;;;11.90;41.70;;;;;;6278691;28;20032;-77
2021/04/04 05:37:27;;;;;;;4.25;2.30;;;11.90;41.90;;;;;;6278866;28;20035;-77
2021/04/04 05:40:30;;;;;;;6.18;2.72;;;11.90;41.90;;;;;;6279535;28;20032;-77
2021/04/04 05:43:41;;;;;;;3.22;1.90;;;11.90;41.90;;;;;;6258930;28;20108;-77
2021/04/04 05:46:46;;;;;;;4.40;2.70;;;11.90;41.90;;;;;;6210535;28;20473;-77
2021/04/04 05:50:05;;;;;;;5.93;2.65;;;11.90;41.90;;;;;;6235365;28;20121;-77
2021/04/04 05:53:27;;;;;;;4.75;2.10;;;11.90;42.00;;;;;;6255168;28;20037;-77
2021/04/04 05:56:40;;;;;;;5.82;3.03;;;11.90;42.00;;;;;;6254743;28;20044;-78
2021/04/04 05:59:47;;;;;;;7.95;2.55;;;11.90;42.00;;;;;;6260482;28;20127;-78
2021/04/04 06:03:12;;;;;;;4.80;2.50;;;11.90;42.00;;;;;;6264708;28;20033;-78
2021/04/04 06:06:21;;;;;;;4.57;2.20;;;11.80;42.00;;;;;;6284687;28;20041;-78
2021/04/04 06:09:41;;;;;;;5.72;2.15;;;11.80;42.00;;;;;;6287315;28;20039;-78
2021/04/04 06:13:26;;;;;;;4.85;2.38;;;11.80;41.90;;;;;;6288256;28;20036;-78
2021/04/04 06:16:31;;;;;;;7.35;2.55;;;11.80;41.80;;;;;;6133353;28;20045;-79
2021/04/04 06:19:32;;;;;;;3.20;2.10;;;11.80;41.80;;;;;;6135662;28;20114;-77
2021/04/04 06:22:44;;;;;;;4.90;3.00;;;11.80;41.80;;;;;;6159445;28;20071;-77
2021/04/04 06:26:24;;;;;;;4.28;2.33;;;11.80;41.70;;;;;;6147569;28;20039;-78
2021/04/04 06:29:54;;;;;;;4.05;2.40;;;11.70;41.50;;;;;;6104100;29;20040;-76
2021/04/04 06:33:05;;;;;;;12.25;3.08;;;11.70;41.50;;;;;;6089977;29;20046;-76
2021/04/04 06:36:33;;;;;;;5.53;2.67;;;11.70;41.40;;;;;;6114487;29;20127;-77
2021/04/04 06:39:51;;;;;;;3.75;1.98;;;11.70;41.30;;;;;;6078807;29;20039;-78
2021/04/04 06:43:11;;;;;;;6.28;2.53;;;11.70;41.10;;;;;;6116430;29;20400;-77
2021/04/04 06:46:42;;;;;;;8.43;1.98;;;11.80;41.00;;;;;;6121832;29;20375;-78
2021/04/04 06:50:08;;;;;;;4.95;2.30;;;11.80;40.90;;;;;;6099360;29;20141;-77
2021/04/04 06:53:28;;;;;;;5.78;2.42;;;11.80;40.70;;;;;;6162641;28;20120;-79
2021/04/04 06:56:45;;;;;;;10.10;2.45;;;11.80;40.60;;;;;;6202046;28;20439;-78
2021/04/04 07:00:13;;;;;;;3.60;2.10;;;11.90;40.60;;;;;;6185107;28;20061;-77
2021/04/04 07:03:20;;;;;;;8.32;2.95;;;12.10;40.70;;;;;;6185636;28;20046;-78
2021/04/04 07:06:30;;;;;;;4.40;2.45;;;12.00;40.40;;;;;;6261590;28;20037;-77
2021/04/04 07:09:54;;;;;;;5.90;2.35;;;12.00;40.30;;;;;;6315649;28;20461;-77
2021/04/04 07:13:19;;;;;;;4.97;2.65;;;12.10;40.10;;;;;;6301721;28;20043;-78
2021/04/04 07:16:46;;;;;;;2.60;1.73;;;12.20;40.00;;;;;;6319034;28;20375;-77
2021/04/04 07:20:22;;;;;;;6.07;2.72;;;12.20;39.90;;;;;;6278052;28;20056;-76
2021/04/04 07:23:43;;;;;;;8.55;2.83;;;12.20;39.80;;;;;;6303747;28;20051;-79
2021/04/04 07:27:01;;;;;;;4.78;2.20;;;12.30;39.90;;;;;;6295742;28;20051;-78
2021/04/04 07:30:31;;;;;;;6.25;3.00;;;12.30;39.80;;;;;;6294626;28;20056;-78
2021/04/04 07:33:42;;;;;;;56.05;6.22;;;12.40;39.70;;;;;;6298757;28;20125;-76
2021/04/04 07:36:52;;;;;;;8.98;2.95;;;12.50;40.10;;;;;;6317370;28;20036;-77
2021/04/04 07:40:07;;;;;;;9.40;2.75;;;12.60;39.50;;;;;;6316602;28;20427;-77
2021/04/04 07:43:10;;;;;;;6.43;2.15;;;12.70;39.40;;;;;;6292626;28;20055;-77
2021/04/04 07:46:22;;;;;;;4.72;2.58;;;12.90;39.20;;;;;;6288614;28;20112;-77
2021/04/04 07:49:50;;;;;;;10.23;2.47;;;13.00;39.10;;;;;;6271114;28;20028;-76
2021/04/04 07:53:07;;;;;;;9.57;3.45;;;13.10;38.70;;;;;;6285283;28;20032;-78
2021/04/04 07:56:25;;;;;;;4.63;2.53;;;13.20;38.70;;;;;;6298479;28;20024;-76
2021/04/04 07:59:41;;;;;;;3.47;2.30;;;13.20;38.60;;;;;;6270822;28;20028;-78
2021/04/04 08:03:01;;;;;;;5.43;2.72;;;13.40;38.40;;;;;;6306197;28;20426;-78
2021/04/04 08:06:07;;;;;;;6.07;2.38;;;13.50;38.10;;;;;;6295734;28;20039;-77
2021/04/04 08:09:30;;;;;;;8.25;2.47;;;13.60;37.80;;;;;;6263724;28;20037;-78
2021/04/04 08:12:54;;;;;;;4.75;2.45;;;13.70;37.70;;;;;;6269404;28;20036;-78
2021/04/04 08:16:13;;;;;;;7.32;2.85;;;13.80;37.50;;;;;;6277197;28;20178;-77
2021/04/04 08:19:15;;;;;;;7.22;2.47;;;13.90;37.40;;;;;;6262855;28;20041;-77
2021/04/04 08:22:23;;;;;;;10.43;2.95;;;14.10;37.20;;;;;;6239646;28;20033;-77
2021/04/04 08:25:37;;;;;;;4.15;2.10;;;14.10;37.20;;;;;;6256566;28;20041;-78
2021/04/04 08:28:43;;;;;;;8.18;2.92;;;14.20;37.10;;;;;;6272956;28;20032;-79
2021/04/04 08:31:49;;;;;;;5.30;2.67;;;14.30;37.00;;;;;;6273298;28;20032;-78
2021/04/04 08:34:56;;;;;;;6.18;3.10;;;14.40;36.90;;;;;;6266168;28;20478;-77
2021/04/04 08:38:10;;;;;;;10.30;3.22;;;14.60;36.50;;;;;;6295601;28;20041;-78
2021/04/04 08:41:14;;;;;;;4.53;2.17;;;14.70;36.20;;;;;;6248637;28;20024;-77
2021/04/04 08:44:30;;;;;;;11.55;2.78;;;14.90;36.00;;;;;;6294521;28;20036;-77
2021/04/04 08:47:32;;;;;;;7.68;2.83;;;14.90;35.80;;;;;;6286286;28;20144;-78
2021/04/04 08:50:37;;;;;;;4.68;2.58;;;15.00;35.70;;;;;;6255868;28;20043;-79
2021/04/04 08:53:43;;;;;;;6.60;2.72;;;15.00;35.60;;;;;;6260224;28;20332;-78
2021/04/04 08:56:46;;;;;;;6.30;2.80;;;15.10;35.50;;;;;;6262852;28;20477;-77
2021/04/04 08:59:52;;;;;;;8.95;2.97;;;15.10;35.30;;;;;;6279363;28;20371;-78
2021/04/04 09:03:07;;;;;;;7.47;3.45;;;15.30;35.10;;;;;;6262779;28;20044;-77
2021/04/04 09:06:10;;;;;;;4.13;2.60;;;15.20;35.10;;;;;;6258719;28;20036;-77
2021/04/04 09:09:26;;;;;;;5.38;2.65;;;15.30;35.00;;;;;;6297899;28;20037;-78
2021/04/04 09:12:34;;;;;;;8.95;3.20;;;15.30;34.90;;;;;;6277987;28;20032;-79
2021/04/04 09:15:56;;;;;;;4.13;2.90;;;15.40;35.40;;;;;;6251240;28;20471;-77
2021/04/04 09:18:57;;;;;;;5.90;2.90;;;15.50;34.70;;;;;;6253826;28;20069;-77
2021/04/04 09:22:03;;;;;;;7.03;2.60;;;15.50;34.40;;;;;;6262169;28;20084;-79
2021/04/04 09:25:09;;;;;;;5.90;2.85;;;15.50;34.50;;;;;;6275095;28;20036;-77
2021/04/04 09:28:10;;;;;;;9.10;2.70;;;15.60;34.40;;;;;;6278862;28;20125;-77
2021/04/04 09:31:31;;;;;;;8.18;3.67;;;15.60;34.40;;;;;;6295975;28;20040;-78
2021/04/04 09:34:36;;;;;;;8.90;2.75;;;15.70;34.50;;;;;;6296818;28;20146;-77
2021/04/04 09:37:37;;;;;;;8.40;3.47;;;15.80;34.20;;;;;;6279836;28;20040;-77
2021/04/04 09:40:41;;;;;;;5.35;3.17;;;15.70;34.00;;;;;;6263487;28;20099;-78
2021/04/04 09:43:56;;;;;;;7.68;3.13;;;15.80;34.10;;;;;;6269528;28;20163;-77
2021/04/04 09:46:59;;;;;;;6.35;3.22;;;15.80;34.10;;;;;;6255252;28;20060;-78
2021/04/04 09:50:00;;;;;;;5.65;3.42;;;15.80;34.00;;;;;;6252865;28;20029;-78
2021/04/04 09:53:02;;;;;;;6.50;3.58;;;15.80;33.90;;;;;;6254637;28;20032;-78
2021/04/04 09:56:12;;;;;;;12.77;3.20;;;15.90;33.80;;;;;;6242926;28;20468;-77
2021/04/04 09:59:26;;;;;;;7.75;3.10;;;16.00;33.80;;;;;;6290587;28;20041;-78
2021/04/04 10:02:32;;;;;;;7.80;3.17;;;16.10;33.70;;;;;;6294598;28;20156;-77
2021/04/04 10:05:37;;;;;;;6.05;3.10;;;16.20;33.40;;;;;;6258758;28;20045;-77
2021/04/04 10:08:57;;;;;;;6.70;3.15;;;16.30;33.30;;;;;;6255635;28;20037;-77
2021/04/04 10:12:01;;;;;;;8.43;3.03;;;16.40;33.20;;;;;;6268095;28;20037;-76
2021/04/04 10:15:07;;;;;;;7.03;3.00;;;16.40;33.00;;;;;;6256357;28;20079;-78
2021/04/04 10:18:08;;;;;;;5.78;3.00;;;16.40;32.70;;;;;;6289581;28;20036;-77
2021/04/04 10:21:09;;;;;;;4.50;2.67;;;16.30;32.70;;;;;;6291881;28;20061;-77
2021/04/04 10:24:33;;;;;;;7.90;3.08;;;16.30;32.70;;;;;;6277260;28;20074;-77
2021/04/04 10:27:35;;;;;;;11.18;3.25;;;16.30;32.70;;;;;;6256923;28;20403;-77
2021/04/04 10:30:39;;;;;;;7.95;3.28;;;16.40;32.30;;;;;;6277396;28;20057;-78
2021/04/04 10:33:40;;;;;;;6.97;3.30;;;16.40;32.40;;;;;;6276391;28;20536;-78
2021/04/04 10:36:41;;;;;;;6.35;3.63;;;16.50;32.40;;;;;;6254118;28;20064;-78
2021/04/04 10:39:42;;;;;;;4.80;2.97;;;16.60;32.50;;;;;;6277601;28;20040;-78
2021/04/04 10:42:56;;;;;;;5.57;2.78;;;16.90;32.40;;;;;;6267166;28;20170;-77
2021/04/04 10:45:59;;;;;;;5.63;3.20;;;17.20;31.80;;;;;;6253492;28;20394;-78
2021/04/04 10:49:03;;;;;;;8.18;3.55;;;17.50;31.10;;;;;;6268873;28;20439;-78
2021/04/04 10:52:06;;;;;;;8.75;3.92;;;17.90;30.70;;;;;;6270827;28;20063;-78
2021/04/04 10:55:10;;;;;;;7.65;3.33;;;18.30;30.10;;;;;;6261131;28;20033;-77
2021/04/04 10:58:19;;;;;;;6.82;3.05;;;18.70;29.60;;;;;;6269799;28;20047;-77
2021/04/04 11:01:21;;;;;;;10.35;3.92;;;19.00;29.00;;;;;;6276643;28;20036;-78
2021/04/04 11:04:23;;;;;;;12.10;3.45;;;19.20;28.40;;;;;;6282211;28;20040;-78
2021/04/04 11:07:25;;;;;;;11.10;3.90;;;19.40;28.20;;;;;;6286088;28;20046;-77
2021/04/04 11:10:26;;;;;;;9.25;3.40;;;19.50;27.90;;;;;;6261097;28;20033;-77
2021/04/04 11:13:28;;;;;;;6.55;3.75;;;19.80;28.00;;;;;;6255392;28;20043;-77
2021/04/04 11:16:30;;;;;;;10.32;3.90;;;20.20;28.00;;;;;;6269210;28;20481;-77
2021/04/04 11:19:32;;;;;;;6.30;3.58;;;20.60;27.60;;;;;;6274477;28;20044;-78
2021/04/04 11:22:33;;;;;;;7.60;3.47;;;20.80;27.30;;;;;;6289804;28;20033;-78
2021/04/04 11:25:35;;;;;;;5.05;3.35;;;21.10;27.20;;;;;;6272649;28;20478;-76
2021/04/04 11:28:36;;;;;;;9.23;3.72;;;21.10;26.80;;;;;;6247960;28;20040;-78
2021/04/04 11:31:48;;;;;;;9.30;3.53;;;21.10;26.90;;;;;;6272872;28;20044;-77
2021/04/04 11:35:04;;;;;;;8.05;3.35;;;21.30;26.70;;;;;;6274512;28;20459;-79
2021/04/04 11:38:12;;;;;;;4.90;2.70;;;21.40;26.40;;;;;;6272728;28;20028;-77
2021/04/04 11:41:20;;;;;;;;;;;21.50;26.10;;;;;;6263169;28;20032;-77
2021/04/04 11:44:31;;;;;;;7.93;3.25;;;21.60;26.10;;;;;;6257441;28;19926;-78
2021/04/04 11:47:32;;;;;;;5.57;3.33;;;21.70;26.00;;;;;;6270253;28;20044;-77
2021/04/04 11:50:33;;;;;;;4.38;2.80;;;21.80;25.80;;;;;;6256616;28;20041;-77
2021/04/04 11:53:44;;;;;;;5.43;2.25;;;22.10;25.60;;;;;;6276114;28;20056;-79
2021/04/04 11:56:47;;;;;;;6.38;3.38;;;22.30;25.30;;;;;;6271640;28;20040;-78
2021/04/04 11:59:53;;;;;;;5.95;2.80;;;22.60;24.80;;;;;;6264926;28;20040;-77
2021/04/04 12:03:04;;;;;;;4.95;2.53;;;23.00;24.60;;;;;;6265273;28;20037;-77
2021/04/04 12:06:13;;;;;;;6.75;2.70;;;23.40;24.10;;;;;;6295229;28;20051;-78
2021/04/04 12:09:15;;;;;;;4.80;3.03;;;23.80;23.80;;;;;;6258101;28;20113;-77
2021/04/04 12:12:16;;;;;;;6.00;2.35;;;24.30;23.30;;;;;;6275762;28;20040;-78
2021/04/04 12:15:19;;;;;;;4.05;2.63;;;24.60;22.80;;;;;;6279369;28;20508;-80
2021/04/04 12:18:19;;;;;;;5.90;2.90;;;24.80;22.30;;;;;;6270176;28;20360;-78
2021/04/04 12:21:20;;;;;;;7.53;2.95;;;25.00;22.10;;;;;;6265694;28;20033;-78
2021/04/04 12:24:21;;;;;;;4.35;2.75;;;25.30;22.00;;;;;;6273729;28;20096;-77
2021/04/04 12:27:25;;;;;;;7.55;2.90;;;25.70;21.70;;;;;;6263950;28;20051;-78
2021/04/04 12:30:38;;;;;;;4.32;2.38;;;26.10;21.20;;;;;;6265301;28;20032;-78
2021/04/04 12:33:39;;;;;;;6.45;3.00;;;26.60;21.00;;;;;;6295376;28;20060;-77
2021/04/04 12:36:46;;;;;;;5.05;2.58;;;27.10;20.30;;;;;;6297191;28;20042;-77
2021/04/04 12:39:47;;;;;;;8.80;2.80;;;27.20;20.00;;;;;;6278823;28;20032;-78
2021/04/04 12:42:55;;;;;;;5.50;2.70;;;27.40;19.70;;;;;;6230431;28;20276;-77
2021/04/04 12:45:56;;;;;;;5.43;2.83;;;27.90;19.40;;;;;;6267777;28;20036;-78
2021/04/04 12:48:57;;;;;;;4.53;2.75;;;28.20;19.10;;;;;;6260580;28;20029;-78
2021/04/04 12:51:58;;;;;;;5.22;3.20;;;28.50;18.90;;;;;;6239536;28;20033;-78
2021/04/04 12:55:26;;;;;;;4.68;2.70;;;28.90;18.80;;;;;;6246151;28;20063;-78
2021/04/04 12:58:32;;;;;;;8.00;3.10;;;29.60;18.30;;;;;;6170310;28;20574;-78
2021/04/04 13:01:33;;;;;;;3.35;2.17;;;29.80;17.70;;;;;;6179450;28;20093;-78
2021/04/04 13:04:34;;;;;;;4.28;2.35;;;29.80;17.90;;;;;;6195049;28;20053;-78
2021/04/04 13:07:35;;;;;;;6.38;2.30;;;29.80;17.60;;;;;;6194433;28;20038;-78
2021/04/04 13:10:36;;;;;;;4.90;2.55;;;29.90;17.50;;;;;;6172767;28;20042;-78
2021/04/04 13:13:38;;;;;;;4.57;2.38;;;30.00;17.50;;;;;;6179060;28;20057;-79
2021/04/04 13:16:42;;;;;;;4.40;2.80;;;30.20;17.30;;;;;;6184984;28;20121;-77
2021/04/04 13:19:43;;;;;;;9.13;3.42;;;30.30;17.10;;;;;;6166762;28;20039;-77
2021/04/04 13:22:45;;;;;;;4.65;2.60;;;30.60;17.00;;;;;;6161733;28;20126;-78
2021/04/04 13:25:46;;;;;;;6.88;2.30;;;30.80;16.80;;;;;;6164531;28;20082;-78
2021/04/04 13:29:17;;;;;;;3.92;2.60;;;31.10;16.70;;;;;;6175619;28;20037;-78
2021/04/04 13:32:18;;;;;;;4.93;2.58;;;31.20;16.20;;;;;;6176484;28;20104;-78
2021/04/04 13:35:31;;;;;;;3.90;2.72;;;31.00;16.30;;;;;;6252745;28;20032;-78
2021/04/04 13:38:32;;;;;;;3.63;2.10;;;31.10;16.50;;;;;;6255183;28;20341;-78
2021/04/04 13:41:34;;;;;;;2.83;2.22;;;31.50;16.20;;;;;;6253476;28;20064;-78
2021/04/04 13:44:42;;;;;;;5.35;2.65;;;31.50;16.00;;;;;;6253985;28;20080;-78
2021/04/04 13:47:57;;;;;;;4.32;2.53;;;31.60;15.90;;;;;;6266963;28;20032;-78
2021/04/04 13:50:58;;;;;;;3.63;2.20;;;31.60;15.80;;;;;;6279907;28;20029;-78
2021/04/04 13:54:06;;;;;;;8.82;2.50;;;30.70;16.10;;;;;;6269168;28;20444;-78
2021/04/04 13:57:10;;;;;;;6.20;2.05;;;29.60;17.00;;;;;;6264731;28;20479;-78
2021/04/04 14:00:13;;;;;;;3.55;2.08;;;28.60;17.60;;;;;;6266533;28;20352;-78
2021/04/04 14:03:14;;;;;;;5.75;2.50;;;27.70;18.30;;;;;;6276020;28;20445;-79
2021/04/04 14:06:15;;;;;;;6.95;2.13;;;27.00;18.80;;;;;;6258697;28;20047;-78
2021/04/04 14:09:16;;;;;;;4.13;2.08;;;26.30;19.20;;;;;;6251666;28;20136;-80
2021/04/04 14:12:19;;;;;;;5.60;2.38;;;25.50;19.80;;;;;;6252133;28;20029;-79
2021/04/04 14:15:20;;;;;;;4.60;2.15;;;24.70;20.50;;;;;;6259457;28;20360;-78
2021/04/04 14:18:26;;;;;;;4.82;2.33;;;24.10;21.10;;;;;;6273216;28;20033;-78
2021/04/04 14:21:27;;;;;;;5.55;2.38;;;23.60;21.60;;;;;;6249957;28;20068;-77
2021/04/04 14:24:28;;;;;;;6.63;2.25;;;23.20;22.00;;;;;;6262795;28;20082;-78
2021/04/04 14:27:28;;;;;;;5.15;2.25;;;22.90;22.40;;;;;;6259899;28;20048;-77
2021/04/04 14:30:29;;;;;;;6.60;2.15;;;22.60;22.70;;;;;;6258450;28;20115;-80
2021/04/04 14:33:32;;;;;;;5.50;2.28;;;22.30;22.90;;;;;;6258536;28;20036;-80
2021/04/04 14:36:33;;;;;;;5.15;2.10;;;22.10;23.30;;;;;;6285058;28;20047;-77
2021/04/04 14:39:34;;;;;;;6.95;2.10;;;21.80;23.60;;;;;;6261004;28;20064;-78
2021/04/04 14:42:35;;;;;;;3.78;2.20;;;21.60;23.80;;;;;;6267573;28;20052;-79
2021/04/04 14:45:37;;;;;;;3.50;1.75;;;21.40;24.10;;;;;;6287491;28;20035;-77
2021/04/04 14:48:38;;;;;;;5.07;2.05;;;21.20;24.20;;;;;;6247237;28;20329;-79
2021/04/04 14:51:39;;;;;;;4.90;2.47;;;21.10;24.40;;;;;;6252915;28;20029;-77
2021/04/04 14:54:42;;;;;;;6.10;2.40;;;21.00;24.60;;;;;;6271143;28;20349;-77
2021/04/04 14:57:43;;;;;;;4.45;2.10;;;20.90;24.70;;;;;;6233630;28;20094;-77
2021/04/04 15:00:44;;;;;;;4.85;2.20;;;20.80;24.90;;;;;;6292955;28;20410;-78
2021/04/04 15:03:45;;;;;;;3.85;1.95;;;20.70;24.80;;;;;;6243989;28;20068;-78
2021/04/04 15:06:49;;;;;;;5.25;2.22;;;20.70;24.70;;;;;;6293486;28;20039;-79
2021/04/04 15:09:50;;;;;;;3.10;2.00;;;20.70;24.70;;;;;;6293995;28;20035;-79
2021/04/04 15:12:52;;;;;;;5.78;2.25;;;20.70;24.60;;;;;;6253201;28;20021;-78
2021/04/04 15:15:53;;;;;;;3.72;1.73;;;20.70;24.60;;;;;;6259052;28;20032;-78
2021/04/04 15:18:54;;;;;;;5.82;1.88;;;20.60;24.50;;;;;;6259112;28;20029;-78
2021/04/04 15:21:55;;;;;;;3.78;1.63;;;20.60;24.50;;;;;;6242016;28;20041;-78
2021/04/04 15:24:57;;;;;;;4.60;1.92;;;20.60;24.50;;;;;;6271445;28;20040;-78
2021/04/04 15:27:58;;;;;;;3.47;1.80;;;20.70;24.50;;;;;;6259994;28;20057;-78
2021/04/04 15:30:59;;;;;;;5.22;1.80;;;20.60;24.40;;;;;;6271562;28;20071;-78
2021/04/04 15:34:01;;;;;;;2.80;1.80;;;20.60;24.30;;;;;;6269116;28;20052;-78
2021/04/04 15:37:02;;;;;;;3.80;2.10;;;20.60;24.30;;;;;;6252366;28;20039;-78
2021/04/04 15:40:05;;;;;;;2.78;1.25;;;20.60;24.40;;;;;;6276137;28;20413;-78
2021/04/04 15:43:07;;;;;;;2.78;1.63;;;20.50;24.20;;;;;;6251467;28;20570;-78
2021/04/04 15:46:07;;;;;;;6.32;1.98;;;20.60;24.20;;;;;;6253680;28;20456;-77
2021/04/04 15:49:08;;;;;;;5.47;2.30;;;20.60;24.10;;;;;;6239755;28;20037;-79
2021/04/04 15:52:09;;;;;;;5.03;1.67;;;20.60;24.00;;;;;;6261282;28;20037;-78
2021/04/04 15:55:11;;;;;;;3.92;1.77;;;20.60;23.90;;;;;;6245334;28;20044;-77
2021/04/04 15:58:12;;;;;;;4.97;2.05;;;20.60;23.90;;;;;;6284910;28;20039;-77
2021/04/04 16:01:13;;;;;;;4.50;2.30;;;20.50;23.70;;;;;;6257518;28;20094;-78
2021/04/04 16:04:14;;;;;;;7.38;1.90;;;20.50;23.80;;;;;;6262178;28;20041;-76
2021/04/04 16:07:17;;;;;;;2.92;1.63;;;20.60;24.00;;;;;;6263266;28;20112;-78